sensor_id;sensor_type;location;lat;lon;timestamp;pressure;altitude;pressure_sealevel;temperature;humidity
26697;BME280;14312;52.614;13.496;2024-02-14T00:00:26;101252.13;;;6.20;73.89
26697;BME280;14312;52.614;13.496;2024-02-14T00:03:12;101250.06;;;6.16;73.97
26697;BME280;14312;52.614;13.496;2024-02-14T00:05:58;101241.91;;;6.11;74.21
26697;BME280;14312;52.614;13.496;2024-02-14T00:08:44;101252.25;;;6.06;74.07
26697;BME280;14312;52.614;13.496;2024-02-14T00:11:30;101252.03;;;6.01;74.03
26697;BME280;14312;52.614;13.496;2024-02-14T00:14:16;101257.69;;;5.98;74.13
26697;BME280;14312;52.614;13.496;2024-02-14T00:17:02;101258.47;;;5.92;74.23
26697;BME280;14312;52.614;13.496;2024-02-14T00:19:48;101253.94;;;5.85;74.22
26697;BME280;14312;52.614;13.496;2024-02-14T00:22:34;101257.16;;;5.81;74.26
26697;BME280;14312;52.614;13.496;2024-02-14T00:25:20;101257.72;;;5.76;74.60
26697;BME280;14312;52.614;13.496;2024-02-14T00:28:06;101253.03;;;5.72;74.30
26697;BME280;14312;52.614;13.496;2024-02-14T00:30:52;101256.25;;;5.67;74.29
26697;BME280;14312;52.614;13.496;2024-02-14T00:33:38;101246.44;;;5.61;74.66
26697;BME280;14312;52.614;13.496;2024-02-14T00:36:24;101246.44;;;5.61;74.58
26697;BME280;14312;52.614;13.496;2024-02-14T00:39:10;101256.56;;;5.58;74.68
26697;BME280;14312;52.614;13.496;2024-02-14T00:41:56;101254.13;;;5.56;75.03
26697;BME280;14312;52.614;13.496;2024-02-14T00:44:42;101249.22;;;5.53;75.14
26697;BME280;14312;52.614;13.496;2024-02-14T00:47:28;101252.88;;;5.52;74.96
26697;BME280;14312;52.614;13.496;2024-02-14T00:50:14;101248.41;;;5.53;75.10
26697;BME280;14312;52.614;13.496;2024-02-14T00:53:00;101247.59;;;5.52;75.13
26697;BME280;14312;52.614;13.496;2024-02-14T00:55:46;101253.88;;;5.51;75.23
26697;BME280;14312;52.614;13.496;2024-02-14T00:58:35;101252.88;;;5.52;75.13
26697;BME280;14312;52.614;13.496;2024-02-14T01:01:20;101248.59;;;5.51;75.34
26697;BME280;14312;52.614;13.496;2024-02-14T01:04:07;101247.59;;;5.52;75.44
26697;BME280;14312;52.614;13.496;2024-02-14T01:06:53;101246.97;;;5.50;75.08
26697;BME280;14312;52.614;13.496;2024-02-14T01:09:39;101252.25;;;5.50;75.49
26697;BME280;14312;52.614;13.496;2024-02-14T01:12:25;101251.59;;;5.48;75.31
26697;BME280;14312;52.614;13.496;2024-02-14T01:15:11;101245.50;;;5.47;75.23
26697;BME280;14312;52.614;13.496;2024-02-14T01:17:57;101254.25;;;5.48;75.29
26697;BME280;14312;52.614;13.496;2024-02-14T01:20:43;101255.28;;;5.47;75.47
26697;BME280;14312;52.614;13.496;2024-02-14T01:23:29;101250.00;;;5.47;75.25
26697;BME280;14312;52.614;13.496;2024-02-14T01:26:15;101240.63;;;5.44;75.21
26697;BME280;14312;52.614;13.496;2024-02-14T01:29:01;101236.53;;;5.42;75.51
26697;BME280;14312;52.614;13.496;2024-02-14T01:31:47;101234.50;;;5.44;75.45
26697;BME280;14312;52.614;13.496;2024-02-14T01:34:33;101231.88;;;5.44;75.54
26697;BME280;14312;52.614;13.496;2024-02-14T01:48:24;101231.63;;;5.39;75.57
26697;BME280;14312;52.614;13.496;2024-02-14T01:51:11;101230.00;;;5.38;75.42
26697;BME280;14312;52.614;13.496;2024-02-14T01:53:58;101224.72;;;5.38;75.50
26697;BME280;14312;52.614;13.496;2024-02-14T01:56:45;101219.78;;;5.35;75.35
26697;BME280;14312;52.614;13.496;2024-02-14T01:59:32;101225.09;;;5.35;75.82
26697;BME280;14312;52.614;13.496;2024-02-14T02:02:19;101223.44;;;5.34;75.66
26697;BME280;14312;52.614;13.496;2024-02-14T02:05:05;101212.88;;;5.34;75.53
26697;BME280;14312;52.614;13.496;2024-02-14T02:07:52;101214.69;;;5.33;75.80
26697;BME280;14312;52.614;13.496;2024-02-14T02:10:39;101218.16;;;5.34;75.69
26697;BME280;14312;52.614;13.496;2024-02-14T02:13:26;101208.22;;;5.36;76.06
26697;BME280;14312;52.614;13.496;2024-02-14T02:16:12;101207.22;;;5.37;76.26
26697;BME280;14312;52.614;13.496;2024-02-14T02:18:58;101195.00;;;5.36;75.84
26697;BME280;14312;52.614;13.496;2024-02-14T02:21:44;101201.94;;;5.37;75.88
26697;BME280;14312;52.614;13.496;2024-02-14T02:24:33;101201.13;;;5.36;76.07
26697;BME280;14312;52.614;13.496;2024-02-14T02:27:19;101204.38;;;5.38;75.74
26697;BME280;14312;52.614;13.496;2024-02-14T02:30:06;101196.66;;;5.37;76.03
26697;BME280;14312;52.614;13.496;2024-02-14T02:32:52;101200.28;;;5.36;75.78
26697;BME280;14312;52.614;13.496;2024-02-14T02:35:41;101195.81;;;5.36;75.92
26697;BME280;14312;52.614;13.496;2024-02-14T02:38:28;101202.94;;;5.36;75.97
26697;BME280;14312;52.614;13.496;2024-02-14T02:41:15;101198.66;;;5.35;75.99
26697;BME280;14312;52.614;13.496;2024-02-14T02:44:01;101191.72;;;5.34;76.17
26697;BME280;14312;52.614;13.496;2024-02-14T02:46:47;101199.47;;;5.35;76.07
26697;BME280;14312;52.614;13.496;2024-02-14T02:49:33;101193.56;;;5.33;75.97
26697;BME280;14312;52.614;13.496;2024-02-14T02:52:19;101197.84;;;5.34;75.93
26697;BME280;14312;52.614;13.496;2024-02-14T02:55:05;101189.31;;;5.32;75.97
26697;BME280;14312;52.614;13.496;2024-02-14T02:57:51;101193.13;;;5.30;75.94
26697;BME280;14312;52.614;13.496;2024-02-14T03:00:38;101184.41;;;5.29;76.01
26697;BME280;14312;52.614;13.496;2024-02-14T03:03:24;101195.16;;;5.28;76.12
26697;BME280;14312;52.614;13.496;2024-02-14T03:06:12;101185.22;;;5.30;76.40
26697;BME280;14312;52.614;13.496;2024-02-14T03:08:58;101178.28;;;5.29;76.28
26697;BME280;14312;52.614;13.496;2024-02-14T03:11:48;101176.28;;;5.31;76.27
26697;BME280;14312;52.614;13.496;2024-02-14T03:14:34;101171.00;;;5.31;76.58
26697;BME280;14312;52.614;13.496;2024-02-14T03:17:21;101173.47;;;5.32;76.60
26697;BME280;14312;52.614;13.496;2024-02-14T03:20:08;101175.88;;;5.34;76.54
26697;BME280;14312;52.614;13.496;2024-02-14T03:23:00;101164.50;;;5.33;76.52
26697;BME280;14312;52.614;13.496;2024-02-14T03:25:47;101159.84;;;5.35;76.37
26697;BME280;14312;52.614;13.496;2024-02-14T03:28:33;101172.88;;;5.37;76.44
26697;BME280;14312;52.614;13.496;2024-02-14T03:31:20;101165.75;;;5.37;76.58
26697;BME280;14312;52.614;13.496;2024-02-14T03:34:06;101163.94;;;5.38;76.71
26697;BME280;14312;52.614;13.496;2024-02-14T03:36:52;101158.47;;;5.39;76.38
26697;BME280;14312;52.614;13.496;2024-02-14T03:39:38;101160.88;;;5.41;76.70
26697;BME280;14312;52.614;13.496;2024-02-14T03:42:24;101151.13;;;5.41;76.29
26697;BME280;14312;52.614;13.496;2024-02-14T03:45:12;101161.53;;;5.43;76.32
26697;BME280;14312;52.614;13.496;2024-02-14T03:47:57;101162.16;;;5.45;76.41
26697;BME280;14312;52.614;13.496;2024-02-14T03:50:43;101154.84;;;5.47;76.34
26697;BME280;14312;52.614;13.496;2024-02-14T03:53:29;101155.66;;;5.47;76.38
26697;BME280;14312;52.614;13.496;2024-02-14T03:56:17;101149.34;;;5.48;76.42
26697;BME280;14312;52.614;13.496;2024-02-14T03:59:03;101140.59;;;5.48;76.54
26697;BME280;14312;52.614;13.496;2024-02-14T04:01:51;101133.31;;;5.50;76.86
26697;BME280;14312;52.614;13.496;2024-02-14T04:04:41;101126.00;;;5.52;76.66
26697;BME280;14312;52.614;13.496;2024-02-14T04:07:28;101138.81;;;5.55;77.00
26697;BME280;14312;52.614;13.496;2024-02-14T04:10:15;101137.44;;;5.59;76.57
26697;BME280;14312;52.614;13.496;2024-02-14T04:13:03;101139.06;;;5.60;76.53
26697;BME280;14312;52.614;13.496;2024-02-14T04:15:49;101135.44;;;5.61;76.67
26697;BME280;14312;52.614;13.496;2024-02-14T04:18:35;101131.75;;;5.62;76.77
26697;BME280;14312;52.614;13.496;2024-02-14T04:21:21;101131.75;;;5.62;76.79
26697;BME280;14312;52.614;13.496;2024-02-14T04:24:07;101135.03;;;5.64;76.76
26697;BME280;14312;52.614;13.496;2024-02-14T04:26:53;101138.28;;;5.66;76.54
26697;BME280;14312;52.614;13.496;2024-02-14T04:29:48;101149.28;;;5.70;76.80
26697;BME280;14312;52.614;13.496;2024-02-14T04:32:34;101148.91;;;5.73;76.21
26697;BME280;14312;52.614;13.496;2024-02-14T04:35:20;101152.38;;;5.73;76.22
26697;BME280;14312;52.614;13.496;2024-02-14T04:38:06;101142.78;;;5.72;76.36
26697;BME280;14312;52.614;13.496;2024-02-14T04:40:54;101151.97;;;5.76;76.66
26697;BME280;14312;52.614;13.496;2024-02-14T04:43:42;101142.63;;;5.80;76.65
26697;BME280;14312;52.614;13.496;2024-02-14T04:46:28;101137.75;;;5.84;76.53
26697;BME280;14312;52.614;13.496;2024-02-14T04:49:13;101139.22;;;5.86;76.28
26697;BME280;14312;52.614;13.496;2024-02-14T04:52:00;101129.28;;;5.88;76.54
26697;BME280;14312;52.614;13.496;2024-02-14T04:54:46;101132.16;;;5.94;76.23
26697;BME280;14312;52.614;13.496;2024-02-14T04:57:32;101137.25;;;5.95;76.45
26697;BME280;14312;52.614;13.496;2024-02-14T05:00:21;101124.84;;;5.96;76.06
26697;BME280;14312;52.614;13.496;2024-02-14T05:03:07;101123.84;;;5.97;76.11
26697;BME280;14312;52.614;13.496;2024-02-14T05:05:53;101116.50;;;5.99;76.17
26697;BME280;14312;52.614;13.496;2024-02-14T05:08:39;101114.47;;;6.01;76.23
26697;BME280;14312;52.614;13.496;2024-02-14T05:11:25;101113.47;;;6.02;76.13
26697;BME280;14312;52.614;13.496;2024-02-14T05:14:11;101109.81;;;6.03;76.31
26697;BME280;14312;52.614;13.496;2024-02-14T05:16:57;101100.25;;;6.02;76.41
26697;BME280;14312;52.614;13.496;2024-02-14T05:19:43;101097.00;;;6.06;76.53
26697;BME280;14312;52.614;13.496;2024-02-14T05:22:29;101100.06;;;6.10;76.66
26697;BME280;14312;52.614;13.496;2024-02-14T05:25:15;101099.06;;;6.11;76.41
26697;BME280;14312;52.614;13.496;2024-02-14T05:28:01;101098.66;;;6.14;76.30
26697;BME280;14312;52.614;13.496;2024-02-14T05:30:47;101096.63;;;6.16;76.44
26697;BME280;14312;52.614;13.496;2024-02-14T05:33:33;101092.97;;;6.17;76.56
26697;BME280;14312;52.614;13.496;2024-02-14T05:36:19;101083.19;;;6.17;76.16
26697;BME280;14312;52.614;13.496;2024-02-14T05:39:05;101082.38;;;6.17;76.40
26697;BME280;14312;52.614;13.496;2024-02-14T05:41:54;101075.03;;;6.19;76.36
26697;BME280;14312;52.614;13.496;2024-02-14T05:44:40;101076.69;;;6.20;76.30
26697;BME280;14312;52.614;13.496;2024-02-14T05:47:26;101066.72;;;6.22;76.68
26697;BME280;14312;52.614;13.496;2024-02-14T05:50:12;101065.72;;;6.23;76.45
26697;BME280;14312;52.614;13.496;2024-02-14T05:52:58;101072.22;;;6.27;76.55
26697;BME280;14312;52.614;13.496;2024-02-14T05:55:44;101065.28;;;6.26;76.43
26697;BME280;14312;52.614;13.496;2024-02-14T05:58:30;101064.91;;;6.29;76.56
26697;BME280;14312;52.614;13.496;2024-02-14T06:01:17;101065.28;;;6.33;76.53
26697;BME280;14312;52.614;13.496;2024-02-14T06:04:03;101065.09;;;6.34;76.92
26697;BME280;14312;52.614;13.496;2024-02-14T06:06:49;101060.44;;;6.36;76.79
26697;BME280;14312;52.614;13.496;2024-02-14T06:09:35;101061.66;;;6.40;76.80
26697;BME280;14312;52.614;13.496;2024-02-14T06:12:21;101064.09;;;6.42;76.69
26697;BME280;14312;52.614;13.496;2024-02-14T06:15:07;101070.00;;;6.44;76.47
26697;BME280;14312;52.614;13.496;2024-02-14T06:17:53;101072.25;;;6.47;76.54
26697;BME280;14312;52.614;13.496;2024-02-14T06:20:39;101065.72;;;6.49;76.00
26697;BME280;14312;52.614;13.496;2024-02-14T06:23:26;101065.72;;;6.49;76.28
26697;BME280;14312;52.614;13.496;2024-02-14T06:26:12;101072.47;;;6.52;76.25
26697;BME280;14312;52.614;13.496;2024-02-14T06:28:58;101065.34;;;6.52;76.36
26697;BME280;14312;52.614;13.496;2024-02-14T06:31:44;101071.03;;;6.56;75.96
26697;BME280;14312;52.614;13.496;2024-02-14T06:34:30;101072.66;;;6.57;76.02
26697;BME280;14312;52.614;13.496;2024-02-14T06:37:16;101077.16;;;6.56;76.24
26697;BME280;14312;52.614;13.496;2024-02-14T06:40:02;101073.09;;;6.60;76.20
26697;BME280;14312;52.614;13.496;2024-02-14T06:42:48;101066.97;;;6.60;76.31
26697;BME280;14312;52.614;13.496;2024-02-14T06:45:36;101068.19;;;6.64;76.48
26697;BME280;14312;52.614;13.496;2024-02-14T06:48:22;101061.06;;;6.64;76.08
26697;BME280;14312;52.614;13.496;2024-02-14T06:51:09;101064.09;;;6.68;76.47
26697;BME280;14312;52.614;13.496;2024-02-14T06:53:56;101060.88;;;6.73;76.37
26697;BME280;14312;52.614;13.496;2024-02-14T06:56:42;101058.03;;;6.74;76.50
26697;BME280;14312;52.614;13.496;2024-02-14T06:59:28;101050.66;;;6.76;76.20
26697;BME280;14312;52.614;13.496;2024-02-14T07:02:14;101042.13;;;6.81;76.46
26697;BME280;14312;52.614;13.496;2024-02-14T07:05:00;101039.03;;;6.84;76.60
26697;BME280;14312;52.614;13.496;2024-02-14T07:07:46;101043.53;;;6.90;76.65
26697;BME280;14312;52.614;13.496;2024-02-14T07:10:32;101036.00;;;6.93;76.62
26697;BME280;14312;52.614;13.496;2024-02-14T07:13:18;101041.69;;;6.97;76.68
26697;BME280;14312;52.614;13.496;2024-02-14T07:16:04;101033.94;;;7.02;76.63
26697;BME280;14312;52.614;13.496;2024-02-14T07:18:50;101037.19;;;7.04;76.38
26697;BME280;14312;52.614;13.496;2024-02-14T07:21:36;101044.09;;;7.12;75.93
26697;BME280;14312;52.614;13.496;2024-02-14T07:24:23;101049.81;;;7.15;76.21
26697;BME280;14312;52.614;13.496;2024-02-14T07:27:10;101047.34;;;7.20;76.40
26697;BME280;14312;52.614;13.496;2024-02-14T07:29:56;101059.97;;;7.25;76.32
26697;BME280;14312;52.614;13.496;2024-02-14T07:32:46;101041.22;;;7.26;76.39
26697;BME280;14312;52.614;13.496;2024-02-14T07:35:32;101049.75;;;7.35;75.83
26697;BME280;14312;52.614;13.496;2024-02-14T07:38:18;101059.16;;;7.37;75.80
26697;BME280;14312;52.614;13.496;2024-02-14T07:41:03;101061.97;;;7.42;75.99
26697;BME280;14312;52.614;13.496;2024-02-14T07:43:50;101064.00;;;7.47;75.61
26697;BME280;14312;52.614;13.496;2024-02-14T07:46:36;101063.97;;;7.54;74.87
26697;BME280;14312;52.614;13.496;2024-02-14T07:49:21;101068.88;;;7.57;75.01
26697;BME280;14312;52.614;13.496;2024-02-14T07:52:07;101066.41;;;7.62;74.89
26697;BME280;14312;52.614;13.496;2024-02-14T07:54:54;101070.69;;;7.63;74.98
26697;BME280;14312;52.614;13.496;2024-02-14T07:57:44;101071.66;;;7.68;75.24
26697;BME280;14312;52.614;13.496;2024-02-14T08:00:30;101051.69;;;7.72;75.30
26697;BME280;14312;52.614;13.496;2024-02-14T08:03:16;101059.59;;;7.79;74.81
26697;BME280;14312;52.614;13.496;2024-02-14T08:06:02;101054.47;;;7.84;74.53
26697;BME280;14312;52.614;13.496;2024-02-14T08:08:48;101055.69;;;7.88;74.56
26697;BME280;14312;52.614;13.496;2024-02-14T08:11:43;101053.22;;;7.93;74.57
26697;BME280;14312;52.614;13.496;2024-02-14T08:14:28;101052.78;;;7.96;74.24
26697;BME280;14312;52.614;13.496;2024-02-14T08:17:14;101040.72;;;8.00;74.46
26697;BME280;14312;52.614;13.496;2024-02-14T08:20:01;101038.69;;;8.02;74.47
26697;BME280;14312;52.614;13.496;2024-02-14T08:22:49;101031.09;;;8.06;74.32
26697;BME280;14312;52.614;13.496;2024-02-14T08:25:35;101033.09;;;8.10;74.68
26697;BME280;14312;52.614;13.496;2024-02-14T08:28:21;101021.69;;;8.03;74.46
26697;BME280;14312;52.614;13.496;2024-02-14T08:31:11;101018.44;;;8.08;74.53
26697;BME280;14312;52.614;13.496;2024-02-14T08:33:57;101020.06;;;8.09;74.68
26697;BME280;14312;52.614;13.496;2024-02-14T08:37:06;101025.06;;;8.23;75.06
26697;BME280;14312;52.614;13.496;2024-02-14T08:40:04;101026.13;;;8.16;75.13
26697;BME280;14312;52.614;13.496;2024-02-14T08:42:53;101011.03;;;8.16;75.02
26697;BME280;14312;52.614;13.496;2024-02-14T08:45:39;101028.91;;;8.27;75.37
26697;BME280;14312;52.614;13.496;2024-02-14T08:48:25;101017.69;;;8.25;74.66
26697;BME280;14312;52.614;13.496;2024-02-14T08:51:13;101015.00;;;8.32;74.70
26697;BME280;14312;52.614;13.496;2024-02-14T08:53:59;101026.84;;;8.30;75.20
26697;BME280;14312;52.614;13.496;2024-02-14T08:56:46;101015.41;;;8.36;75.05
26697;BME280;14312;52.614;13.496;2024-02-14T08:59:32;101027.41;;;8.45;74.95
26697;BME280;14312;52.614;13.496;2024-02-14T09:02:18;101005.09;;;8.46;74.84
26697;BME280;14312;52.614;13.496;2024-02-14T09:05:04;101003.81;;;8.55;74.46
26697;BME280;14312;52.614;13.496;2024-02-14T09:07:51;101015.41;;;8.60;74.30
26697;BME280;14312;52.614;13.496;2024-02-14T09:10:37;101008.56;;;8.71;73.66
26697;BME280;14312;52.614;13.496;2024-02-14T09:13:23;101011.84;;;8.73;73.38
26697;BME280;14312;52.614;13.496;2024-02-14T09:16:10;101015.81;;;8.82;73.57
26697;BME280;14312;52.614;13.496;2024-02-14T09:18:56;101017.91;;;8.80;73.90
26697;BME280;14312;52.614;13.496;2024-02-14T09:21:44;101016.63;;;8.83;74.09
26697;BME280;14312;52.614;13.496;2024-02-14T09:24:30;101008.44;;;8.84;74.22
26697;BME280;14312;52.614;13.496;2024-02-14T09:27:17;101018.41;;;8.89;73.90
26697;BME280;14312;52.614;13.496;2024-02-14T09:30:04;101016.00;;;8.87;74.03
26697;BME280;14312;52.614;13.496;2024-02-14T09:32:53;101025.88;;;8.98;74.33
26697;BME280;14312;52.614;13.496;2024-02-14T09:35:41;101012.88;;;8.90;74.56
26697;BME280;14312;52.614;13.496;2024-02-14T09:38:31;101016.16;;;8.92;74.46
26697;BME280;14312;52.614;13.496;2024-02-14T09:41:58;101012.81;;;8.97;74.55
26697;BME280;14312;52.614;13.496;2024-02-14T09:44:58;101010.38;;;8.95;74.72
26697;BME280;14312;52.614;13.496;2024-02-14T09:47:46;101023.66;;;8.95;74.83
26697;BME280;14312;52.614;13.496;2024-02-14T09:50:33;101015.69;;;8.95;75.18
26697;BME280;14312;52.614;13.496;2024-02-14T09:53:20;101023.63;;;9.02;75.15
26697;BME280;14312;52.614;13.496;2024-02-14T09:56:11;101019.53;;;8.99;75.66
26697;BME280;14312;52.614;13.496;2024-02-14T09:59:02;101029.44;;;9.11;75.60
26697;BME280;14312;52.614;13.496;2024-02-14T10:01:48;101024.13;;;9.11;75.87
26697;BME280;14312;52.614;13.496;2024-02-14T10:04:37;101025.31;;;9.15;75.86
26697;BME280;14312;52.614;13.496;2024-02-14T10:07:24;101016.31;;;9.16;76.00
26697;BME280;14312;52.614;13.496;2024-02-14T10:10:10;101022.22;;;9.18;76.14
26697;BME280;14312;52.614;13.496;2024-02-14T10:12:56;101011.97;;;9.21;76.18
26697;BME280;14312;52.614;13.496;2024-02-14T10:15:43;101009.09;;;9.23;76.44
26697;BME280;14312;52.614;13.496;2024-02-14T10:18:31;101004.34;;;9.25;76.61
26697;BME280;14312;52.614;13.496;2024-02-14T10:21:17;101020.88;;;9.27;77.09
26697;BME280;14312;52.614;13.496;2024-02-14T10:24:05;101007.59;;;9.27;77.28
26697;BME280;14312;52.614;13.496;2024-02-14T10:26:53;101009.97;;;9.35;77.71
26697;BME280;14312;52.614;13.496;2024-02-14T10:29:39;101008.25;;;9.40;78.00
26697;BME280;14312;52.614;13.496;2024-02-14T10:32:25;101003.66;;;9.48;77.97
26697;BME280;14312;52.614;13.496;2024-02-14T10:35:12;101012.16;;;9.56;78.08
26697;BME280;14312;52.614;13.496;2024-02-14T10:38:00;100994.47;;;9.62;77.88
26697;BME280;14312;52.614;13.496;2024-02-14T10:40:47;101002.38;;;9.68;78.07
26697;BME280;14312;52.614;13.496;2024-02-14T10:43:34;100997.06;;;9.68;78.02
26697;BME280;14312;52.614;13.496;2024-02-14T10:46:23;100995.13;;;9.75;78.23
26697;BME280;14312;52.614;13.496;2024-02-14T10:49:10;100993.19;;;9.82;78.17
26697;BME280;14312;52.614;13.496;2024-02-14T10:51:58;100993.31;;;9.88;78.16
26697;BME280;14312;52.614;13.496;2024-02-14T10:54:55;100990.91;;;9.98;78.46
26697;BME280;14312;52.614;13.496;2024-02-14T10:57:46;100985.72;;;10.03;78.32
26697;BME280;14312;52.614;13.496;2024-02-14T11:00:32;100993.84;;;10.08;78.46
26697;BME280;14312;52.614;13.496;2024-02-14T11:03:18;100991.66;;;10.16;78.63
26697;BME280;14312;52.614;13.496;2024-02-14T11:06:05;100984.66;;;10.22;78.42
26697;BME280;14312;52.614;13.496;2024-02-14T11:09:00;100984.56;;;10.29;78.14
26697;BME280;14312;52.614;13.496;2024-02-14T11:11:47;100972.16;;;10.34;77.82
26697;BME280;14312;52.614;13.496;2024-02-14T11:14:33;100975.75;;;10.40;78.39
26697;BME280;14312;52.614;13.496;2024-02-14T11:17:21;100971.13;;;10.47;78.40
26697;BME280;14312;52.614;13.496;2024-02-14T11:20:30;100977.03;;;10.60;78.21
26697;BME280;14312;52.614;13.496;2024-02-14T11:23:21;100976.09;;;10.67;78.23
26697;BME280;14312;52.614;13.496;2024-02-14T11:26:15;100972.28;;;10.74;77.97
26697;BME280;14312;52.614;13.496;2024-02-14T11:29:03;100971.03;;;10.77;78.24
26697;BME280;14312;52.614;13.496;2024-02-14T11:32:00;100978.19;;;10.88;77.29
26697;BME280;14312;52.614;13.496;2024-02-14T11:34:54;100971.59;;;10.90;77.24
26697;BME280;14312;52.614;13.496;2024-02-14T11:37:51;100967.53;;;10.88;77.03
26697;BME280;14312;52.614;13.496;2024-02-14T11:40:39;100977.03;;;10.84;77.09
26697;BME280;14312;52.614;13.496;2024-02-14T11:43:26;100968.47;;;10.82;77.18
26697;BME280;14312;52.614;13.496;2024-02-14T11:46:12;100965.25;;;10.80;77.33
26697;BME280;14312;52.614;13.496;2024-02-14T11:48:59;100971.03;;;10.77;77.48
26697;BME280;14312;52.614;13.496;2024-02-14T11:51:48;100973.69;;;10.77;77.71
26697;BME280;14312;52.614;13.496;2024-02-14T11:54:34;100972.06;;;10.76;77.83
26697;BME280;14312;52.614;13.496;2024-02-14T11:57:20;100964.56;;;10.73;77.76
26697;BME280;14312;52.614;13.496;2024-02-14T12:00:07;100968.25;;;10.72;77.81
26697;BME280;14312;52.614;13.496;2024-02-14T12:02:53;100972.78;;;10.71;78.14
26697;BME280;14312;52.614;13.496;2024-02-14T12:05:40;100966.63;;;10.71;78.11
26697;BME280;14312;52.614;13.496;2024-02-14T12:08:27;100967.44;;;10.71;78.05
26697;BME280;14312;52.614;13.496;2024-02-14T12:11:13;100978.09;;;10.71;78.07
26697;BME280;14312;52.614;13.496;2024-02-14T12:14:05;100974.03;;;10.69;78.24
26697;BME280;14312;52.614;13.496;2024-02-14T12:16:56;100963.84;;;10.66;78.51
26697;BME280;14312;52.614;13.496;2024-02-14T12:19:45;100959.66;;;10.70;78.38
26697;BME280;14312;52.614;13.496;2024-02-14T12:22:32;100953.53;;;10.69;78.66
26697;BME280;14312;52.614;13.496;2024-02-14T12:25:18;100955.16;;;10.70;78.75
26697;BME280;14312;52.614;13.496;2024-02-14T12:28:05;100962.91;;;10.72;78.66
26697;BME280;14312;52.614;13.496;2024-02-14T12:30:52;100971.47;;;10.74;78.78
26697;BME280;14312;52.614;13.496;2024-02-14T12:33:41;100966.16;;;10.74;79.14
26697;BME280;14312;52.614;13.496;2024-02-14T12:36:31;100970.56;;;10.80;79.20
26697;BME280;14312;52.614;13.496;2024-02-14T12:39:18;100972.16;;;10.81;79.18
26697;BME280;14312;52.614;13.496;2024-02-14T12:42:06;100968.00;;;10.85;79.14
26697;BME280;14312;52.614;13.496;2024-02-14T12:44:54;100966.47;;;10.89;79.49
26697;BME280;14312;52.614;13.496;2024-02-14T12:47:40;100958.34;;;10.95;79.50
26697;BME280;14312;52.614;13.496;2024-02-14T12:50:29;100967.31;;;11.01;79.16
26697;BME280;14312;52.614;13.496;2024-02-14T12:53:15;100967.63;;;11.05;79.39
26697;BME280;14312;52.614;13.496;2024-02-14T12:56:01;100964.25;;;11.09;79.25
26697;BME280;14312;52.614;13.496;2024-02-14T12:58:47;100962.53;;;11.15;79.27
26697;BME280;14312;52.614;13.496;2024-02-14T13:01:34;100966.00;;;11.15;79.43
26697;BME280;14312;52.614;13.496;2024-02-14T13:04:20;100960.75;;;11.20;79.39
26697;BME280;14312;52.614;13.496;2024-02-14T13:07:05;100968.03;;;11.25;79.62
26697;BME280;14312;52.614;13.496;2024-02-14T13:09:52;100957.72;;;11.28;79.58
26697;BME280;14312;52.614;13.496;2024-02-14T13:12:38;100960.50;;;11.33;79.68
26697;BME280;14312;52.614;13.496;2024-02-14T13:15:24;100951.53;;;11.39;79.33
26697;BME280;14312;52.614;13.496;2024-02-14T13:18:11;100961.16;;;11.41;79.31
26697;BME280;14312;52.614;13.496;2024-02-14T13:20:57;100976.13;;;11.42;79.43
26697;BME280;14312;52.614;13.496;2024-02-14T13:23:45;100966.03;;;11.44;79.30
26697;BME280;14312;52.614;13.496;2024-02-14T13:26:31;100965.53;;;11.47;79.53
26697;BME280;14312;52.614;13.496;2024-02-14T13:29:17;100959.75;;;11.50;79.47
26697;BME280;14312;52.614;13.496;2024-02-14T13:32:03;100975.28;;;11.53;79.33
26697;BME280;14312;52.614;13.496;2024-02-14T13:34:51;100962.97;;;11.52;79.36
26697;BME280;14312;52.614;13.496;2024-02-14T13:37:37;100973.66;;;11.52;79.29
26697;BME280;14312;52.614;13.496;2024-02-14T13:40:23;100975.28;;;11.53;79.55
26697;BME280;14312;52.614;13.496;2024-02-14T13:43:09;100975.28;;;11.53;79.37
26697;BME280;14312;52.614;13.496;2024-02-14T13:45:56;100978.97;;;11.52;79.51
26697;BME280;14312;52.614;13.496;2024-02-14T13:48:42;100965.63;;;11.52;79.73
26697;BME280;14312;52.614;13.496;2024-02-14T13:51:29;100984.31;;;11.52;79.69
26697;BME280;14312;52.614;13.496;2024-02-14T13:54:15;100980.06;;;11.51;79.69
26697;BME280;14312;52.614;13.496;2024-02-14T13:57:01;100975.75;;;11.50;79.74
26697;BME280;14312;52.614;13.496;2024-02-14T13:59:48;100981.09;;;11.50;79.89
26697;BME280;14312;52.614;13.496;2024-02-14T14:02:34;100970.41;;;11.50;80.04
26697;BME280;14312;52.614;13.496;2024-02-14T14:05:22;100976.56;;;11.50;80.21
26697;BME280;14312;52.614;13.496;2024-02-14T14:08:08;100982.72;;;11.51;80.33
26697;BME280;14312;52.614;13.496;2024-02-14T14:10:54;100976.56;;;11.50;80.37
26697;BME280;14312;52.614;13.496;2024-02-14T14:13:40;100974.13;;;11.49;80.48
26697;BME280;14312;52.614;13.496;2024-02-14T14:16:26;100981.09;;;11.50;80.64
26697;BME280;14312;52.614;13.496;2024-02-14T14:19:12;100979.56;;;11.54;80.75
26697;BME280;14312;52.614;13.496;2024-02-14T14:21:58;100981.78;;;11.57;80.69
26697;BME280;14312;52.614;13.496;2024-02-14T14:24:44;100988.72;;;11.58;80.60
26697;BME280;14312;52.614;13.496;2024-02-14T14:27:31;100985.00;;;11.59;80.77
26697;BME280;14312;52.614;13.496;2024-02-14T14:30:17;100977.56;;;11.61;80.82
26697;BME280;14312;52.614;13.496;2024-02-14T14:33:04;100995.19;;;11.62;80.92
26697;BME280;14312;52.614;13.496;2024-02-14T14:35:50;100985.09;;;11.64;81.00
26697;BME280;14312;52.614;13.496;2024-02-14T14:38:38;100989.41;;;11.65;81.00
26697;BME280;14312;52.614;13.496;2024-02-14T14:41:26;100988.91;;;11.68;81.05